sensor_id;sensor_type;location;lat;lon;timestamp;P1;durP1;ratioP1;P2;durP2;ratioP2
59263;SDS011;45030;42.720;23.344;2023-02-18T00:00:56;58.40;;;33.90;;
59263;SDS011;45030;42.720;23.344;2023-02-18T00:03:24;66.38;;;31.52;;
59263;SDS011;45030;42.720;23.344;2023-02-18T00:05:49;56.85;;;30.80;;
59263;SDS011;45030;42.720;23.344;2023-02-18T00:08:15;67.90;;;31.92;;
59263;SDS011;45030;42.720;23.344;2023-02-18T00:10:40;72.88;;;33.70;;
59263;SDS011;45030;42.720;23.344;2023-02-18T00:13:06;85.97;;;38.03;;
59263;SDS011;45030;42.720;23.344;2023-02-18T00:15:33;64.00;;;31.63;;
59263;SDS011;45030;42.720;23.344;2023-02-18T00:17:58;59.70;;;31.65;;
59263;SDS011;45030;42.720;23.344;2023-02-18T00:20:24;83.82;;;38.28;;
59263;SDS011;45030;42.720;23.344;2023-02-18T00:22:50;117.82;;;50.88;;
59263;SDS011;45030;42.720;23.344;2023-02-18T00:25:15;175.30;;;75.97;;
59263;SDS011;45030;42.720;23.344;2023-02-18T00:27:40;145.30;;;65.13;;
59263;SDS011;45030;42.720;23.344;2023-02-18T00:30:06;115.10;;;47.67;;
59263;SDS011;45030;42.720;23.344;2023-02-18T00:32:32;115.03;;;48.70;;
59263;SDS011;45030;42.720;23.344;2023-02-18T00:34:58;102.95;;;45.35;;
59263;SDS011;45030;42.720;23.344;2023-02-18T00:37:23;116.40;;;48.58;;
59263;SDS011;45030;42.720;23.344;2023-02-18T00:39:48;110.57;;;49.25;;
59263;SDS011;45030;42.720;23.344;2023-02-18T00:42:13;105.68;;;47.80;;
59263;SDS011;45030;42.720;23.344;2023-02-18T00:44:39;110.43;;;44.95;;
59263;SDS011;45030;42.720;23.344;2023-02-18T00:47:04;110.50;;;47.72;;
59263;SDS011;45030;42.720;23.344;2023-02-18T00:49:29;81.28;;;35.08;;
59263;SDS011;45030;42.720;23.344;2023-02-18T00:51:55;79.63;;;36.63;;
59263;SDS011;45030;42.720;23.344;2023-02-18T00:54:20;81.60;;;35.92;;
59263;SDS011;45030;42.720;23.344;2023-02-18T00:56:45;67.95;;;32.85;;
59263;SDS011;45030;42.720;23.344;2023-02-18T00:59:11;111.78;;;41.65;;
59263;SDS011;45030;42.720;23.344;2023-02-18T01:01:36;130.15;;;52.45;;
59263;SDS011;45030;42.720;23.344;2023-02-18T01:04:01;131.32;;;53.58;;
59263;SDS011;45030;42.720;23.344;2023-02-18T01:06:26;129.05;;;54.05;;
59263;SDS011;45030;42.720;23.344;2023-02-18T01:08:52;120.22;;;51.65;;
59263;SDS011;45030;42.720;23.344;2023-02-18T01:11:17;110.25;;;44.33;;
59263;SDS011;45030;42.720;23.344;2023-02-18T01:13:42;86.32;;;37.80;;
59263;SDS011;45030;42.720;23.344;2023-02-18T01:16:08;81.35;;;35.85;;
59263;SDS011;45030;42.720;23.344;2023-02-18T01:18:33;71.32;;;32.20;;
59263;SDS011;45030;42.720;23.344;2023-02-18T01:20:59;60.40;;;28.67;;
59263;SDS011;45030;42.720;23.344;2023-02-18T01:23:24;58.97;;;27.45;;
59263;SDS011;45030;42.720;23.344;2023-02-18T01:25:49;54.08;;;23.55;;
59263;SDS011;45030;42.720;23.344;2023-02-18T01:28:15;66.55;;;30.35;;
59263;SDS011;45030;42.720;23.344;2023-02-18T01:30:40;64.55;;;28.20;;
59263;SDS011;45030;42.720;23.344;2023-02-18T01:33:06;54.20;;;25.83;;
59263;SDS011;45030;42.720;23.344;2023-02-18T01:35:32;104.13;;;38.10;;
59263;SDS011;45030;42.720;23.344;2023-02-18T01:37:57;86.78;;;39.03;;
59263;SDS011;45030;42.720;23.344;2023-02-18T01:40:23;79.25;;;36.58;;
59263;SDS011;45030;42.720;23.344;2023-02-18T01:42:49;69.93;;;32.72;;
59263;SDS011;45030;42.720;23.344;2023-02-18T01:48:08;76.93;;;32.55;;
59263;SDS011;45030;42.720;23.344;2023-02-18T01:50:37;73.05;;;32.17;;
59263;SDS011;45030;42.720;23.344;2023-02-18T01:53:03;83.32;;;33.88;;
59263;SDS011;45030;42.720;23.344;2023-02-18T01:55:28;78.57;;;34.50;;
59263;SDS011;45030;42.720;23.344;2023-02-18T01:57:54;68.53;;;32.95;;
59263;SDS011;45030;42.720;23.344;2023-02-18T02:00:19;84.85;;;35.58;;
59263;SDS011;45030;42.720;23.344;2023-02-18T02:02:48;72.80;;;34.35;;
59263;SDS011;45030;42.720;23.344;2023-02-18T02:05:14;64.57;;;31.42;;
59263;SDS011;45030;42.720;23.344;2023-02-18T02:07:40;67.20;;;30.48;;
59263;SDS011;45030;42.720;23.344;2023-02-18T02:10:06;88.22;;;39.17;;
59263;SDS011;45030;42.720;23.344;2023-02-18T02:35:22;70.47;;;31.00;;
59263;SDS011;45030;42.720;23.344;2023-02-18T02:37:52;53.38;;;25.92;;
59263;SDS011;45030;42.720;23.344;2023-02-18T02:40:22;57.40;;;27.27;;
59263;SDS011;45030;42.720;23.344;2023-02-18T02:50:35;34.22;;;18.35;;
59263;SDS011;45030;42.720;23.344;2023-02-18T02:53:04;37.30;;;18.67;;
59263;SDS011;45030;42.720;23.344;2023-02-18T02:55:31;84.03;;;37.92;;
59263;SDS011;45030;42.720;23.344;2023-02-18T02:57:57;76.55;;;37.13;;
59263;SDS011;45030;42.720;23.344;2023-02-18T03:00:26;62.10;;;30.42;;
59263;SDS011;45030;42.720;23.344;2023-02-18T03:02:59;66.75;;;28.52;;
59263;SDS011;45030;42.720;23.344;2023-02-18T03:05:49;56.90;;;26.75;;
59263;SDS011;45030;42.720;23.344;2023-02-18T03:18:37;47.08;;;22.33;;
59263;SDS011;45030;42.720;23.344;2023-02-18T03:21:08;40.22;;;20.60;;
59263;SDS011;45030;42.720;23.344;2023-02-18T03:23:44;41.60;;;22.17;;
59263;SDS011;45030;42.720;23.344;2023-02-18T03:26:10;52.03;;;23.30;;
59263;SDS011;45030;42.720;23.344;2023-02-18T03:28:36;43.65;;;23.13;;
59263;SDS011;45030;42.720;23.344;2023-02-18T03:31:06;47.28;;;23.33;;
59263;SDS011;45030;42.720;23.344;2023-02-18T03:33:38;48.15;;;25.33;;
59263;SDS011;45030;42.720;23.344;2023-02-18T03:36:04;48.85;;;26.45;;
59263;SDS011;45030;42.720;23.344;2023-02-18T03:38:41;44.17;;;23.70;;
59263;SDS011;45030;42.720;23.344;2023-02-18T03:41:08;71.10;;;39.00;;
59263;SDS011;45030;42.720;23.344;2023-02-18T03:43:34;50.20;;;30.23;;
59263;SDS011;45030;42.720;23.344;2023-02-18T03:45:59;64.20;;;33.08;;
59263;SDS011;45030;42.720;23.344;2023-02-18T03:48:24;66.57;;;33.95;;
59263;SDS011;45030;42.720;23.344;2023-02-18T03:50:50;53.60;;;28.58;;
59263;SDS011;45030;42.720;23.344;2023-02-18T03:53:15;58.53;;;29.15;;
59263;SDS011;45030;42.720;23.344;2023-02-18T03:55:40;57.30;;;29.90;;
59263;SDS011;45030;42.720;23.344;2023-02-18T03:58:06;58.67;;;31.30;;
59263;SDS011;45030;42.720;23.344;2023-02-18T04:00:32;55.80;;;28.27;;
59263;SDS011;45030;42.720;23.344;2023-02-18T04:02:57;53.25;;;25.70;;
59263;SDS011;45030;42.720;23.344;2023-02-18T04:05:22;56.88;;;30.38;;
59263;SDS011;45030;42.720;23.344;2023-02-18T04:07:47;35.92;;;19.42;;
59263;SDS011;45030;42.720;23.344;2023-02-18T04:10:13;34.80;;;18.38;;
59263;SDS011;45030;42.720;23.344;2023-02-18T04:12:38;32.88;;;18.35;;
59263;SDS011;45030;42.720;23.344;2023-02-18T04:15:04;45.38;;;23.20;;
59263;SDS011;45030;42.720;23.344;2023-02-18T04:17:31;42.42;;;19.95;;
59263;SDS011;45030;42.720;23.344;2023-02-18T04:19:56;57.38;;;30.63;;
59263;SDS011;45030;42.720;23.344;2023-02-18T04:22:21;51.38;;;26.35;;
59263;SDS011;45030;42.720;23.344;2023-02-18T04:24:46;63.35;;;31.38;;
59263;SDS011;45030;42.720;23.344;2023-02-18T04:27:12;65.25;;;30.35;;
59263;SDS011;45030;42.720;23.344;2023-02-18T04:29:37;64.63;;;28.77;;
59263;SDS011;45030;42.720;23.344;2023-02-18T04:32:02;65.22;;;29.35;;
59263;SDS011;45030;42.720;23.344;2023-02-18T04:34:27;62.63;;;30.08;;
59263;SDS011;45030;42.720;23.344;2023-02-18T04:36:53;54.88;;;26.55;;
59263;SDS011;45030;42.720;23.344;2023-02-18T04:39:18;61.45;;;27.83;;
59263;SDS011;45030;42.720;23.344;2023-02-18T04:41:43;59.88;;;30.27;;
59263;SDS011;45030;42.720;23.344;2023-02-18T04:44:08;65.18;;;30.58;;
59263;SDS011;45030;42.720;23.344;2023-02-18T04:46:34;84.70;;;37.08;;
59263;SDS011;45030;42.720;23.344;2023-02-18T04:48:59;79.03;;;35.28;;
59263;SDS011;45030;42.720;23.344;2023-02-18T04:51:24;69.60;;;32.75;;
59263;SDS011;45030;42.720;23.344;2023-02-18T04:53:50;57.22;;;28.83;;
59263;SDS011;45030;42.720;23.344;2023-02-18T04:56:15;52.40;;;28.08;;
59263;SDS011;45030;42.720;23.344;2023-02-18T04:58:40;42.35;;;20.83;;
59263;SDS011;45030;42.720;23.344;2023-02-18T05:01:05;48.38;;;27.20;;
59263;SDS011;45030;42.720;23.344;2023-02-18T05:03:31;46.90;;;26.10;;
59263;SDS011;45030;42.720;23.344;2023-02-18T05:05:56;62.88;;;31.67;;
59263;SDS011;45030;42.720;23.344;2023-02-18T05:08:22;62.70;;;32.72;;
59263;SDS011;45030;42.720;23.344;2023-02-18T05:10:47;57.55;;;30.25;;
59263;SDS011;45030;42.720;23.344;2023-02-18T05:13:13;58.78;;;30.45;;
59263;SDS011;45030;42.720;23.344;2023-02-18T05:15:38;61.50;;;28.52;;
59263;SDS011;45030;42.720;23.344;2023-02-18T05:18:03;44.67;;;24.38;;
59263;SDS011;45030;42.720;23.344;2023-02-18T05:20:28;61.72;;;25.70;;
59263;SDS011;45030;42.720;23.344;2023-02-18T05:22:54;66.95;;;30.48;;
59263;SDS011;45030;42.720;23.344;2023-02-18T05:25:19;105.32;;;44.72;;
59263;SDS011;45030;42.720;23.344;2023-02-18T05:27:44;47.72;;;29.83;;
59263;SDS011;45030;42.720;23.344;2023-02-18T05:30:10;73.40;;;37.17;;
59263;SDS011;45030;42.720;23.344;2023-02-18T05:32:35;50.50;;;29.83;;
59263;SDS011;45030;42.720;23.344;2023-02-18T05:35:00;77.95;;;36.83;;
59263;SDS011;45030;42.720;23.344;2023-02-18T05:37:26;80.85;;;35.78;;
59263;SDS011;45030;42.720;23.344;2023-02-18T05:39:51;76.90;;;40.00;;
59263;SDS011;45030;42.720;23.344;2023-02-18T05:42:16;86.50;;;35.13;;
59263;SDS011;45030;42.720;23.344;2023-02-18T05:44:41;78.43;;;34.90;;
59263;SDS011;45030;42.720;23.344;2023-02-18T05:47:08;80.88;;;34.40;;
59263;SDS011;45030;42.720;23.344;2023-02-18T05:49:34;80.55;;;38.00;;
59263;SDS011;45030;42.720;23.344;2023-02-18T05:51:59;56.25;;;31.17;;
59263;SDS011;45030;42.720;23.344;2023-02-18T05:54:25;81.97;;;36.45;;
59263;SDS011;45030;42.720;23.344;2023-02-18T05:56:50;32.88;;;18.63;;
59263;SDS011;45030;42.720;23.344;2023-02-18T05:59:16;76.05;;;35.20;;
59263;SDS011;45030;42.720;23.344;2023-02-18T06:01:41;39.00;;;19.75;;
59263;SDS011;45030;42.720;23.344;2023-02-18T06:04:07;50.78;;;23.73;;
59263;SDS011;45030;42.720;23.344;2023-02-18T06:06:32;68.05;;;38.00;;
59263;SDS011;45030;42.720;23.344;2023-02-18T06:08:58;52.75;;;25.90;;
59263;SDS011;45030;42.720;23.344;2023-02-18T06:11:23;58.00;;;26.38;;
59263;SDS011;45030;42.720;23.344;2023-02-18T06:13:48;59.45;;;27.20;;
59263;SDS011;45030;42.720;23.344;2023-02-18T06:16:13;67.93;;;33.10;;
59263;SDS011;45030;42.720;23.344;2023-02-18T06:18:39;100.90;;;46.83;;
59263;SDS011;45030;42.720;23.344;2023-02-18T06:21:04;126.88;;;51.15;;
59263;SDS011;45030;42.720;23.344;2023-02-18T06:23:29;96.68;;;45.90;;
59263;SDS011;45030;42.720;23.344;2023-02-18T06:25:54;117.95;;;48.08;;
59263;SDS011;45030;42.720;23.344;2023-02-18T06:28:19;96.43;;;44.40;;
59263;SDS011;45030;42.720;23.344;2023-02-18T06:30:45;95.05;;;39.22;;
59263;SDS011;45030;42.720;23.344;2023-02-18T06:33:10;73.07;;;35.83;;
59263;SDS011;45030;42.720;23.344;2023-02-18T06:35:35;86.50;;;37.42;;
59263;SDS011;45030;42.720;23.344;2023-02-18T06:38:01;92.15;;;42.25;;
59263;SDS011;45030;42.720;23.344;2023-02-18T06:40:26;91.95;;;43.50;;
59263;SDS011;45030;42.720;23.344;2023-02-18T06:42:51;115.18;;;48.20;;
59263;SDS011;45030;42.720;23.344;2023-02-18T06:45:16;177.35;;;72.60;;
59263;SDS011;45030;42.720;23.344;2023-02-18T06:47:42;116.47;;;55.95;;
59263;SDS011;45030;42.720;23.344;2023-02-18T06:50:07;115.38;;;54.70;;
59263;SDS011;45030;42.720;23.344;2023-02-18T06:52:32;121.30;;;55.90;;
59263;SDS011;45030;42.720;23.344;2023-02-18T06:54:58;112.78;;;54.55;;
59263;SDS011;45030;42.720;23.344;2023-02-18T06:57:23;123.07;;;55.90;;
59263;SDS011;45030;42.720;23.344;2023-02-18T06:59:49;115.90;;;55.83;;
59263;SDS011;45030;42.720;23.344;2023-02-18T07:02:14;139.80;;;68.07;;
59263;SDS011;45030;42.720;23.344;2023-02-18T07:04:39;127.13;;;59.28;;
59263;SDS011;45030;42.720;23.344;2023-02-18T07:07:05;125.35;;;56.53;;
59263;SDS011;45030;42.720;23.344;2023-02-18T07:09:30;110.57;;;50.28;;
59263;SDS011;45030;42.720;23.344;2023-02-18T07:11:55;95.88;;;45.60;;
59263;SDS011;45030;42.720;23.344;2023-02-18T07:14:20;78.78;;;38.72;;
59263;SDS011;45030;42.720;23.344;2023-02-18T07:16:48;117.57;;;51.55;;
59263;SDS011;45030;42.720;23.344;2023-02-18T07:19:13;71.75;;;34.22;;
59263;SDS011;45030;42.720;23.344;2023-02-18T07:21:38;68.15;;;36.22;;
59263;SDS011;45030;42.720;23.344;2023-02-18T07:24:04;74.72;;;35.60;;
59263;SDS011;45030;42.720;23.344;2023-02-18T07:26:29;73.00;;;35.65;;
59263;SDS011;45030;42.720;23.344;2023-02-18T07:28:54;54.13;;;28.67;;
59263;SDS011;45030;42.720;23.344;2023-02-18T07:31:20;54.00;;;25.55;;
59263;SDS011;45030;42.720;23.344;2023-02-18T07:33:45;65.88;;;29.75;;
59263;SDS011;45030;42.720;23.344;2023-02-18T07:36:10;52.80;;;26.17;;
59263;SDS011;45030;42.720;23.344;2023-02-18T07:38:35;48.28;;;28.73;;
59263;SDS011;45030;42.720;23.344;2023-02-18T07:41:00;56.25;;;30.55;;
59263;SDS011;45030;42.720;23.344;2023-02-18T07:43:26;53.17;;;28.52;;
59263;SDS011;45030;42.720;23.344;2023-02-18T07:45:51;49.53;;;26.17;;
59263;SDS011;45030;42.720;23.344;2023-02-18T07:48:16;49.70;;;26.33;;
59263;SDS011;45030;42.720;23.344;2023-02-18T07:50:42;56.25;;;27.67;;
59263;SDS011;45030;42.720;23.344;2023-02-18T07:53:08;55.03;;;29.10;;
59263;SDS011;45030;42.720;23.344;2023-02-18T07:55:34;65.05;;;28.88;;
59263;SDS011;45030;42.720;23.344;2023-02-18T07:58:19;41.88;;;27.13;;
59263;SDS011;45030;42.720;23.344;2023-02-18T08:00:45;50.70;;;29.13;;
59263;SDS011;45030;42.720;23.344;2023-02-18T08:03:12;48.08;;;25.23;;
59263;SDS011;45030;42.720;23.344;2023-02-18T08:05:37;38.63;;;19.90;;
59263;SDS011;45030;42.720;23.344;2023-02-18T08:08:02;33.08;;;18.55;;
59263;SDS011;45030;42.720;23.344;2023-02-18T08:10:28;38.50;;;18.58;;
59263;SDS011;45030;42.720;23.344;2023-02-18T08:12:53;33.92;;;16.13;;
59263;SDS011;45030;42.720;23.344;2023-02-18T08:15:18;34.72;;;18.02;;
59263;SDS011;45030;42.720;23.344;2023-02-18T08:17:43;21.35;;;12.68;;
59263;SDS011;45030;42.720;23.344;2023-02-18T08:20:09;26.33;;;13.43;;
59263;SDS011;45030;42.720;23.344;2023-02-18T08:22:34;25.85;;;13.10;;
59263;SDS011;45030;42.720;23.344;2023-02-18T08:25:00;26.65;;;15.43;;
59263;SDS011;45030;42.720;23.344;2023-02-18T08:27:25;23.10;;;13.55;;
59263;SDS011;45030;42.720;23.344;2023-02-18T08:29:50;84.72;;;59.70;;
59263;SDS011;45030;42.720;23.344;2023-02-18T08:32:15;34.95;;;19.92;;
59263;SDS011;45030;42.720;23.344;2023-02-18T08:34:41;133.13;;;74.50;;
59263;SDS011;45030;42.720;23.344;2023-02-18T08:37:06;61.40;;;40.92;;
59263;SDS011;45030;42.720;23.344;2023-02-18T08:39:35;237.60;;;138.02;;
59263;SDS011;45030;42.720;23.344;2023-02-18T08:42:00;89.78;;;45.90;;
59263;SDS011;45030;42.720;23.344;2023-02-18T08:44:25;232.95;;;97.13;;
59263;SDS011;45030;42.720;23.344;2023-02-18T08:46:51;56.78;;;28.08;;
59263;SDS011;45030;42.720;23.344;2023-02-18T08:49:16;33.03;;;16.33;;
59263;SDS011;45030;42.720;23.344;2023-02-18T08:51:41;24.45;;;11.75;;
59263;SDS011;45030;42.720;23.344;2023-02-18T08:54:07;37.50;;;18.23;;
59263;SDS011;45030;42.720;23.344;2023-02-18T08:56:32;47.70;;;23.23;;
59263;SDS011;45030;42.720;23.344;2023-02-18T08:58:57;44.05;;;22.38;;
59263;SDS011;45030;42.720;23.344;2023-02-18T09:01:23;43.05;;;23.30;;
59263;SDS011;45030;42.720;23.344;2023-02-18T09:03:48;59.67;;;38.30;;
59263;SDS011;45030;42.720;23.344;2023-02-18T09:06:13;41.53;;;23.70;;
59263;SDS011;45030;42.720;23.344;2023-02-18T09:08:38;32.60;;;17.67;;
59263;SDS011;45030;42.720;23.344;2023-02-18T09:11:04;49.88;;;20.98;;
59263;SDS011;45030;42.720;23.344;2023-02-18T09:13:29;47.03;;;20.17;;
59263;SDS011;45030;42.720;23.344;2023-02-18T09:16:05;50.17;;;22.23;;
59263;SDS011;45030;42.720;23.344;2023-02-18T09:18:31;45.60;;;18.55;;
59263;SDS011;45030;42.720;23.344;2023-02-18T09:20:57;39.10;;;19.85;;
59263;SDS011;45030;42.720;23.344;2023-02-18T09:23:24;24.23;;;12.02;;
59263;SDS011;45030;42.720;23.344;2023-02-18T09:25:49;20.65;;;11.90;;
59263;SDS011;45030;42.720;23.344;2023-02-18T09:28:14;17.83;;;9.18;;
59263;SDS011;45030;42.720;23.344;2023-02-18T09:30:40;15.73;;;6.80;;
59263;SDS011;45030;42.720;23.344;2023-02-18T09:33:05;13.25;;;6.38;;
59263;SDS011;45030;42.720;23.344;2023-02-18T09:35:30;13.43;;;6.90;;
59263;SDS011;45030;42.720;23.344;2023-02-18T09:37:56;13.13;;;6.25;;
59263;SDS011;45030;42.720;23.344;2023-02-18T09:40:28;11.18;;;6.10;;
59263;SDS011;45030;42.720;23.344;2023-02-18T09:42:56;10.57;;;6.07;;
59263;SDS011;45030;42.720;23.344;2023-02-18T09:45:22;11.88;;;6.10;;
59263;SDS011;45030;42.720;23.344;2023-02-18T09:47:47;9.18;;;5.72;;
59263;SDS011;45030;42.720;23.344;2023-02-18T09:50:23;11.93;;;6.20;;
59263;SDS011;45030;42.720;23.344;2023-02-18T09:52:50;12.80;;;5.88;;
59263;SDS011;45030;42.720;23.344;2023-02-18T09:55:17;12.18;;;6.40;;
59263;SDS011;45030;42.720;23.344;2023-02-18T09:57:44;9.32;;;5.75;;
59263;SDS011;45030;42.720;23.344;2023-02-18T10:00:21;11.93;;;6.03;;
59263;SDS011;45030;42.720;23.344;2023-02-18T10:02:54;15.70;;;9.95;;
59263;SDS011;45030;42.720;23.344;2023-02-18T10:05:20;16.48;;;7.63;;
59263;SDS011;45030;42.720;23.344;2023-02-18T10:07:46;15.88;;;10.52;;
59263;SDS011;45030;42.720;23.344;2023-02-18T10:13:30;14.65;;;6.28;;
59263;SDS011;45030;42.720;23.344;2023-02-18T10:15:56;6.90;;;2.95;;
59263;SDS011;45030;42.720;23.344;2023-02-18T10:18:28;12.65;;;8.35;;
59263;SDS011;45030;42.720;23.344;2023-02-18T10:21:04;9.43;;;4.82;;
59263;SDS011;45030;42.720;23.344;2023-02-18T10:23:31;10.35;;;4.93;;
59263;SDS011;45030;42.720;23.344;2023-02-18T10:25:56;7.22;;;4.70;;
59263;SDS011;45030;42.720;23.344;2023-02-18T10:28:22;6.57;;;3.75;;
59263;SDS011;45030;42.720;23.344;2023-02-18T10:30:54;5.40;;;4.32;;
59263;SDS011;45030;42.720;23.344;2023-02-18T10:33:35;7.20;;;3.25;;
59263;SDS011;45030;42.720;23.344;2023-02-18T10:36:23;4.23;;;3.37;;
59263;SDS011;45030;42.720;23.344;2023-02-18T10:44:04;7.85;;;5.07;;
59263;SDS011;45030;42.720;23.344;2023-02-18T10:54:15;7.30;;;2.90;;
59263;SDS011;45030;42.720;23.344;2023-02-18T10:56:48;8.25;;;3.28;;
59263;SDS011;45030;42.720;23.344;2023-02-18T10:59:31;7.00;;;3.85;;
59263;SDS011;45030;42.720;23.344;2023-02-18T11:01:58;6.15;;;4.45;;
59263;SDS011;45030;42.720;23.344;2023-02-18T11:04:36;13.60;;;10.95;;
59263;SDS011;45030;42.720;23.344;2023-02-18T11:07:04;7.18;;;4.50;;
59263;SDS011;45030;42.720;23.344;2023-02-18T11:12:03;4.97;;;3.00;;
59263;SDS011;45030;42.720;23.344;2023-02-18T11:14:36;7.90;;;3.50;;
59263;SDS011;45030;42.720;23.344;2023-02-18T11:17:16;5.00;;;2.80;;
59263;SDS011;45030;42.720;23.344;2023-02-18T11:19:42;5.85;;;3.47;;
59263;SDS011;45030;42.720;23.344;2023-02-18T11:24:39;7.20;;;3.78;;
59263;SDS011;45030;42.720;23.344;2023-02-18T11:27:09;5.90;;;3.78;;
59263;SDS011;45030;42.720;23.344;2023-02-18T11:29:35;4.55;;;3.20;;
59263;SDS011;45030;42.720;23.344;2023-02-18T11:32:00;8.75;;;4.35;;
59263;SDS011;45030;42.720;23.344;2023-02-18T11:34:26;6.75;;;3.35;;
59263;SDS011;45030;42.720;23.344;2023-02-18T11:36:52;7.63;;;4.35;;
59263;SDS011;45030;42.720;23.344;2023-02-18T11:39:36;7.07;;;3.45;;
59263;SDS011;45030;42.720;23.344;2023-02-18T11:42:06;7.20;;;2.90;;
59263;SDS011;45030;42.720;23.344;2023-02-18T11:44:32;6.10;;;3.45;;
59263;SDS011;45030;42.720;23.344;2023-02-18T11:47:02;9.73;;;4.60;;
59263;SDS011;45030;42.720;23.344;2023-02-18T11:49:28;5.93;;;2.95;;
59263;SDS011;45030;42.720;23.344;2023-02-18T11:51:54;8.20;;;5.97;;
59263;SDS011;45030;42.720;23.344;2023-02-18T11:57:21;6.10;;;3.45;;
59263;SDS011;45030;42.720;23.344;2023-02-18T11:59:39;8.43;;;4.85;;
59263;SDS011;45030;42.720;23.344;2023-02-18T12:04:36;5.00;;;2.90;;
59263;SDS011;45030;42.720;23.344;2023-02-18T12:09:36;6.05;;;3.13;;
59263;SDS011;45030;42.720;23.344;2023-02-18T12:12:04;8.35;;;3.35;;
59263;SDS011;45030;42.720;23.344;2023-02-18T12:14:30;4.38;;;2.40;;
59263;SDS011;45030;42.720;23.344;2023-02-18T12:17:11;5.57;;;2.80;;
59263;SDS011;45030;42.720;23.344;2023-02-18T12:22:18;5.47;;;2.60;;
59263;SDS011;45030;42.720;23.344;2023-02-18T12:27:16;7.60;;;3.65;;
59263;SDS011;45030;42.720;23.344;2023-02-18T12:35:03;6.90;;;4.35;;
59263;SDS011;45030;42.720;23.344;2023-02-18T12:55:22;7.60;;;3.72;;
59263;SDS011;45030;42.720;23.344;2023-02-18T12:57:55;4.53;;;2.72;;
59263;SDS011;45030;42.720;23.344;2023-02-18T13:15:42;5.75;;;2.83;;
59263;SDS011;45030;42.720;23.344;2023-02-18T13:18:19;6.53;;;3.45;;
59263;SDS011;45030;42.720;23.344;2023-02-18T13:20:50;5.25;;;3.13;;
59263;SDS011;45030;42.720;23.344;2023-02-18T13:23:17;7.53;;;3.15;;
59263;SDS011;45030;42.720;23.344;2023-02-18T13:25:43;9.25;;;4.60;;
59263;SDS011;45030;42.720;23.344;2023-02-18T13:28:20;5.65;;;3.35;;
59263;SDS011;45030;42.720;23.344;2023-02-18T13:33:50;6.43;;;3.75;;
59263;SDS011;45030;42.720;23.344;2023-02-18T13:36:27;5.47;;;2.85;;
59263;SDS011;45030;42.720;23.344;2023-02-18T13:41:20;6.07;;;3.28;;
59263;SDS011;45030;42.720;23.344;2023-02-18T13:43:46;5.55;;;2.42;;
59263;SDS011;45030;42.720;23.344;2023-02-18T13:46:15;6.05;;;3.70;;
59263;SDS011;45030;42.720;23.344;2023-02-18T13:51:15;7.25;;;3.35;;
59263;SDS011;45030;42.720;23.344;2023-02-18T13:53:42;8.98;;;4.05;;
59263;SDS011;45030;42.720;23.344;2023-02-18T13:56:09;7.85;;;3.15;;
59263;SDS011;45030;42.720;23.344;2023-02-18T13:58:49;4.82;;;3.40;;
59263;SDS011;45030;42.720;23.344;2023-02-18T14:01:20;4.85;;;2.83;;
59263;SDS011;45030;42.720;23.344;2023-02-18T14:06:14;5.40;;;2.87;;
59263;SDS011;45030;42.720;23.344;2023-02-18T14:08:40;6.88;;;3.95;;
59263;SDS011;45030;42.720;23.344;2023-02-18T14:13:55;8.23;;;4.03;;
59263;SDS011;45030;42.720;23.344;2023-02-18T14:19:28;6.63;;;2.90;;
59263;SDS011;45030;42.720;23.344;2023-02-18T14:21:59;7.97;;;3.63;;
59263;SDS011;45030;42.720;23.344;2023-02-18T14:24:43;5.40;;;2.85;;
59263;SDS011;45030;42.720;23.344;2023-02-18T14:27:13;5.53;;;3.40;;
59263;SDS011;45030;42.720;23.344;2023-02-18T14:29:39;8.02;;;3.05;;
59263;SDS011;45030;42.720;23.344;2023-02-18T14:32:08;8.93;;;2.80;;
59263;SDS011;45030;42.720;23.344;2023-02-18T14:39:49;9.52;;;4.88;;
59263;SDS011;45030;42.720;23.344;2023-02-18T14:42:37;4.32;;;2.47;;
59263;SDS011;45030;42.720;23.344;2023-02-18T14:45:29;4.97;;;2.58;;
59263;SDS011;45030;42.720;23.344;2023-02-18T14:50:22;3.85;;;2.40;;
59263;SDS011;45030;42.720;23.344;2023-02-18T14:52:52;8.68;;;3.85;;
59263;SDS011;45030;42.720;23.344;2023-02-18T14:55:19;5.95;;;3.03;;
59263;SDS011;45030;42.720;23.344;2023-02-18T14:58:11;6.97;;;3.33;;
59263;SDS011;45030;42.720;23.344;2023-02-18T15:00:33;9.50;;;4.07;;
59263;SDS011;45030;42.720;23.344;2023-02-18T15:02:59;5.15;;;3.05;;
59263;SDS011;45030;42.720;23.344;2023-02-18T15:05:26;5.93;;;3.28;;
59263;SDS011;45030;42.720;23.344;2023-02-18T15:08:03;7.22;;;2.83;;
59263;SDS011;45030;42.720;23.344;2023-02-18T15:10:37;6.72;;;2.97;;
59263;SDS011;45030;42.720;23.344;2023-02-18T15:13:04;7.25;;;3.58;;
59263;SDS011;45030;42.720;23.344;2023-02-18T15:15:32;7.85;;;3.38;;
59263;SDS011;45030;42.720;23.344;2023-02-18T15:17:58;6.65;;;3.35;;
59263;SDS011;45030;42.720;23.344;2023-02-18T15:20:23;5.95;;;3.05;;
59263;SDS011;45030;42.720;23.344;2023-02-18T15:22:48;7.15;;;4.05;;
59263;SDS011;45030;42.720;23.344;2023-02-18T15:25:14;8.18;;;3.97;;
59263;SDS011;45030;42.720;23.344;2023-02-18T15:27:43;11.50;;;6.00;;
59263;SDS011;45030;42.720;23.344;2023-02-18T15:32:35;10.95;;;6.60;;
59263;SDS011;45030;42.720;23.344;2023-02-18T15:35:01;22.02;;;11.93;;
59263;SDS011;45030;42.720;23.344;2023-02-18T15:37:28;11.77;;;6.60;;
59263;SDS011;45030;42.720;23.344;2023-02-18T15:39:53;9.00;;;4.80;;
59263;SDS011;45030;42.720;23.344;2023-02-18T15:42:29;6.63;;;4.40;;
59263;SDS011;45030;42.720;23.344;2023-02-18T15:45:02;10.25;;;4.28;;
59263;SDS011;45030;42.720;23.344;2023-02-18T15:49:54;14.63;;;6.55;;
59263;SDS011;45030;42.720;23.344;2023-02-18T15:52:38;10.65;;;6.20;;
59263;SDS011;45030;42.720;23.344;2023-02-18T15:55:08;10.57;;;5.43;;
59263;SDS011;45030;42.720;23.344;2023-02-18T15:57:35;7.82;;;5.22;;
59263;SDS011;45030;42.720;23.344;2023-02-18T16:00:13;14.25;;;6.22;;
59263;SDS011;45030;42.720;23.344;2023-02-18T16:03:23;11.27;;;6.70;;
59263;SDS011;45030;42.720;23.344;2023-02-18T16:05:29;13.40;;;6.10;;
59263;SDS011;45030;42.720;23.344;2023-02-18T16:08:04;42.85;;;14.18;;
59263;SDS011;45030;42.720;23.344;2023-02-18T16:13:01;13.90;;;6.75;;
59263;SDS011;45030;42.720;23.344;2023-02-18T16:15:46;13.50;;;6.55;;
59263;SDS011;45030;42.720;23.344;2023-02-18T16:18:22;12.90;;;8.50;;
59263;SDS011;45030;42.720;23.344;2023-02-18T16:20:55;11.60;;;5.25;;
59263;SDS011;45030;42.720;23.344;2023-02-18T16:23:25;10.02;;;6.07;;
59263;SDS011;45030;42.720;23.344;2023-02-18T16:25:51;13.93;;;6.43;;
59263;SDS011;45030;42.720;23.344;2023-02-18T16:30:42;16.50;;;8.00;;
59263;SDS011;45030;42.720;23.344;2023-02-18T16:33:09;15.07;;;7.88;;
59263;SDS011;45030;42.720;23.344;2023-02-18T16:35:34;18.52;;;7.68;;
59263;SDS011;45030;42.720;23.344;2023-02-18T16:38:00;16.33;;;8.75;;
59263;SDS011;45030;42.720;23.344;2023-02-18T16:40:36;24.63;;;12.80;;
59263;SDS011;45030;42.720;23.344;2023-02-18T16:43:23;20.10;;;10.68;;
59263;SDS011;45030;42.720;23.344;2023-02-18T16:45:51;20.48;;;10.07;;
59263;SDS011;45030;42.720;23.344;2023-02-18T16:50:42;14.93;;;7.60;;